Time;durP1;ratioP1;P1;durP2;ratioP2;P2;SDS_P1;SDS_P2;PMS_P1;PMS_P2;Temp;Humidity;BMP_temperature;BMP_pressure;BME280_temperature;BME280_humidity;BME280_pressure;Samples;Min_cycle;Max_cycle;Signal;HPM_P1;HPM_P2
2024/03/04 00:00:43;;;;;;;;;;;19.40;47.40;;;;;;1497950;78;1530;-69
2024/03/04 00:02:45;;;;;;;;;;;19.50;47.60;;;;;;1497621;78;727;-70
2024/03/04 00:04:48;;;;;;;;;;;19.50;47.50;;;;;;1499967;78;771;-71
2024/03/04 00:06:50;;;;;;;;;;;19.40;47.30;;;;;;1499891;78;672;-70
2024/03/04 00:08:53;;;;;;;;;;;19.50;47.60;;;;;;1504096;78;1958;-69
2024/03/04 00:10:55;;;;;;;;;;;19.50;47.60;;;;;;1499713;78;1092;-71
2024/03/04 00:12:57;;;;;;;;;;;19.40;47.50;;;;;;1503988;78;659;-73
2024/03/04 00:14:59;;;;;;;;;;;19.40;47.50;;;;;;1499347;78;1549;-72
2024/03/04 00:17:01;;;;;;;;;;;19.50;47.60;;;;;;1490253;78;689;-71
2024/03/04 00:19:03;;;;;;;;;;;19.40;47.60;;;;;;1500102;78;640;-71
2024/03/04 00:21:05;;;;;;;;;;;19.50;47.70;;;;;;1504172;78;1144;-72
2024/03/04 00:23:07;;;;;;;;;;;19.40;47.60;;;;;;1504048;78;767;-73
2024/03/04 00:25:14;;;;;;;;;;;19.40;47.70;;;;;;1497838;78;748;-72
2024/03/04 00:27:13;;;;;;;;;;;19.50;47.80;;;;;;1496137;78;1524;-71
2024/03/04 00:29:15;;;;;;;;;;;19.40;47.60;;;;;;1496162;78;1934;-71
2024/03/04 00:31:17;;;;;;;;;;;19.50;47.70;;;;;;1508730;78;1171;-71
2024/03/04 00:33:19;;;;;;;;;;;19.50;47.80;;;;;;1499053;78;726;-71
2024/03/04 00:35:21;;;;;;;;;;;19.50;47.80;;;;;;1496243;78;711;-72
2024/03/04 00:37:24;;;;;;;;;;;19.50;47.80;;;;;;1499930;78;769;-70
2024/03/04 00:39:26;;;;;;;;;;;19.50;47.90;;;;;;1502814;78;674;-70
2024/03/04 00:41:29;;;;;;;;;;;19.50;47.90;;;;;;1501905;78;1201;-70
2024/03/04 00:43:31;;;;;;;;;;;19.40;47.70;;;;;;1483090;78;1513;-72
2024/03/04 00:45:33;;;;;;;;;;;19.50;47.80;;;;;;1550347;75;714;-71
2024/03/04 00:47:35;;;;;;;;;;;19.40;47.70;;;;;;1548007;74;798;-70
2024/03/04 00:49:37;;;;;;;;;;;19.40;47.70;;;;;;1547306;75;1903;-73
2024/03/04 00:51:39;;;;;;;;;;;19.40;47.80;;;;;;1546616;75;1104;-71
2024/03/04 00:53:41;;;;;;;;;;;19.50;47.80;;;;;;1549316;75;706;-70
2024/03/04 00:55:43;;;;;;;;;;;19.40;47.80;;;;;;1545171;75;752;-69
2024/03/04 00:57:45;;;;;;;;;;;19.40;48.00;;;;;;1544948;74;1551;-72
2024/03/04 00:59:46;;;;;;;;;;;19.40;47.90;;;;;;1544208;75;758;-68
2024/03/04 01:01:50;;;;;;;;;;;19.40;48.00;;;;;;1538047;75;1182;-70
2024/03/04 01:03:52;;;;;;;;;;;19.50;48.10;;;;;;1550894;75;820;-70
2024/03/04 01:05:53;;;;;;;;;;;19.50;48.10;;;;;;1544528;75;701;-71
2024/03/04 01:07:55;;;;;;;;;;;19.40;48.00;;;;;;1495282;78;1941;-71
2024/03/04 01:09:57;;;;;;;;;;;19.50;48.20;;;;;;1493415;79;709;-74
2024/03/04 01:12:00;;;;;;;;;;;19.50;48.10;;;;;;1496095;79;1587;-74
2024/03/04 01:14:02;;;;;;;;;;;19.40;48.10;;;;;;1496700;79;625;-73
2024/03/04 01:16:05;;;;;;;;;;;19.40;48.00;;;;;;1502396;79;648;-69
2024/03/04 01:18:09;;;;;;;;;;;19.50;48.10;;;;;;1495277;79;709;-71
2024/03/04 01:20:13;;;;;;;;;;;19.50;48.10;;;;;;1514224;77;1756;-68
2024/03/04 01:22:19;;;;;;;;;;;19.60;48.10;;;;;;1492068;79;1668;-67
2024/03/04 01:24:18;;;;;;;;;;;19.40;48.10;;;;;;1490334;78;1620;-69
2024/03/04 01:26:20;;;;;;;;;;;19.40;48.10;;;;;;1561014;75;650;-69
2024/03/04 01:28:22;;;;;;;;;;;19.40;48.10;;;;;;1549984;75;1914;-71
2024/03/04 01:30:28;;;;;;;;;;;19.40;48.20;;;;;;1551973;74;725;-69
2024/03/04 01:32:27;;;;;;;;;;;19.50;48.30;;;;;;1546733;75;1153;-68
2024/03/04 01:34:29;;;;;;;;;;;19.40;48.20;;;;;;1529134;76;728;-69
2024/03/04 01:36:31;;;;;;;;;;;19.40;48.10;;;;;;1548685;74;706;-71
2024/03/04 01:38:33;;;;;;;;;;;19.40;48.10;;;;;;1554306;75;1529;-68
2024/03/04 01:40:35;;;;;;;;;;;19.50;48.30;;;;;;1548692;75;1124;-70
2024/03/04 01:42:37;;;;;;;;;;;19.40;48.10;;;;;;1546694;75;739;-71
2024/03/04 01:44:39;;;;;;;;;;;19.50;48.20;;;;;;1542007;75;822;-68
2024/03/04 01:46:41;;;;;;;;;;;19.50;48.30;;;;;;1544479;75;779;-70
2024/03/04 01:48:43;;;;;;;;;;;19.50;48.30;;;;;;1549929;75;1957;-69
2024/03/04 01:50:46;;;;;;;;;;;19.40;48.10;;;;;;1558312;75;1161;-70
2024/03/04 01:52:51;;;;;;;;;;;19.40;48.20;;;;;;1556699;75;1292;-69
2024/03/04 01:54:53;;;;;;;;;;;19.50;48.30;;;;;;1495889;78;660;-67
2024/03/04 01:56:55;;;;;;;;;;;19.50;48.40;;;;;;1494971;78;826;-70
2024/03/04 01:58:56;;;;;;;;;;;19.50;48.40;;;;;;1486645;79;783;-70
2024/03/04 02:00:59;;;;;;;;;;;19.40;48.20;;;;;;1498861;78;1142;-71
2024/03/04 02:03:02;;;;;;;;;;;19.40;48.20;;;;;;1491678;79;743;-69
2024/03/04 02:05:08;;;;;;;;;;;19.40;48.20;;;;;;1489757;79;717;-69
2024/03/04 02:07:07;;;;;;;;;;;19.40;48.30;;;;;;1497160;78;1567;-73
2024/03/04 02:09:09;;;;;;;;;;;19.40;48.20;;;;;;1495822;78;1930;-71
2024/03/04 02:11:12;;;;;;;;;;;19.50;48.40;;;;;;1500322;78;1176;-73
2024/03/04 02:13:14;;;;;;;;;;;19.50;48.40;;;;;;1503095;78;723;-71
2024/03/04 02:15:16;;;;;;;;;;;19.40;48.30;;;;;;1504430;78;719;-69
2024/03/04 02:17:18;;;;;;;;;;;19.40;48.30;;;;;;1500245;78;699;-68
2024/03/04 02:19:20;;;;;;;;;;;19.40;48.30;;;;;;1500334;78;833;-69
2024/03/04 02:21:22;;;;;;;;;;;19.40;48.30;;;;;;1494692;78;1633;-69
2024/03/04 02:23:24;;;;;;;;;;;19.40;48.30;;;;;;1495539;78;642;-72
2024/03/04 02:25:28;;;;;;;;;;;19.50;48.50;;;;;;1509560;78;799;-71
2024/03/04 02:27:30;;;;;;;;;;;19.40;48.40;;;;;;1503082;78;1030;-72
2024/03/04 02:29:32;;;;;;;;;;;19.40;48.40;;;;;;1503002;78;1920;-70
2024/03/04 02:31:34;;;;;;;;;;;19.40;48.40;;;;;;1509001;78;1132;-71
2024/03/04 02:33:37;;;;;;;;;;;19.40;48.40;;;;;;1506707;78;757;-70
2024/03/04 02:35:40;;;;;;;;;;;19.40;48.40;;;;;;1498796;78;1554;-70
2024/03/04 02:37:42;;;;;;;;;;;19.30;48.30;;;;;;1502487;78;726;-69
2024/03/04 02:39:44;;;;;;;;;;;19.40;48.40;;;;;;1504907;78;800;-70
2024/03/04 02:41:46;;;;;;;;;;;19.50;48.50;;;;;;1503270;78;1150;-70
2024/03/04 02:43:48;;;;;;;;;;;19.40;48.40;;;;;;1500117;78;682;-69
2024/03/04 02:45:49;;;;;;;;;;;19.40;48.40;;;;;;1494139;78;756;-69
2024/03/04 02:47:51;;;;;;;;;;;19.40;48.50;;;;;;1495387;78;726;-69
2024/03/04 02:49:53;;;;;;;;;;;19.40;48.50;;;;;;1503831;78;1926;-69
2024/03/04 02:51:58;;;;;;;;;;;19.50;48.60;;;;;;1497874;78;1112;-69
2024/03/04 02:54:00;;;;;;;;;;;19.40;48.50;;;;;;1495448;78;681;-69
2024/03/04 02:56:01;;;;;;;;;;;19.40;48.50;;;;;;1505351;78;630;-69
2024/03/04 02:58:09;;;;;;;;;;;19.40;48.50;;;;;;1499972;78;593;-68
2024/03/04 03:00:09;;;;;;;;;;;19.40;48.50;;;;;;1495644;78;1562;-69
2024/03/04 03:02:11;;;;;;;;;;;19.40;48.50;;;;;;1497479;78;1132;-69
2024/03/04 03:04:13;;;;;;;;;;;19.40;48.50;;;;;;1502121;78;1550;-71
2024/03/04 03:06:15;;;;;;;;;;;19.40;48.50;;;;;;1498349;78;631;-69
2024/03/04 03:08:17;;;;;;;;;;;19.40;48.50;;;;;;1494306;78;753;-68
2024/03/04 03:10:18;;;;;;;;;;;19.40;48.50;;;;;;1494741;78;1953;-69
2024/03/04 03:12:20;;;;;;;;;;;19.40;48.50;;;;;;1503906;78;1138;-68
2024/03/04 03:14:22;;;;;;;;;;;19.40;48.40;;;;;;1496493;78;676;-71
2024/03/04 03:16:25;;;;;;;;;;;19.30;48.40;;;;;;1506140;78;756;-68
2024/03/04 03:18:27;;;;;;;;;;;19.40;48.40;;;;;;1494428;78;1343;-67
2024/03/04 03:20:28;;;;;;;;;;;19.30;48.40;;;;;;1494758;78;1156;-70
2024/03/04 03:22:30;;;;;;;;;;;19.30;48.40;;;;;;1506793;78;669;-71
2024/03/04 03:24:32;;;;;;;;;;;19.40;48.40;;;;;;1505511;78;671;-70
2024/03/04 03:26:34;;;;;;;;;;;19.40;48.40;;;;;;1507348;78;774;-69
2024/03/04 03:28:38;;;;;;;;;;;19.50;48.60;;;;;;1481705;79;1940;-68
2024/03/04 03:30:40;;;;;;;;;;;19.40;48.40;;;;;;1498384;78;1164;-70
2024/03/04 03:32:44;;;;;;;;;;;19.40;48.40;;;;;;1507410;78;1607;-69
2024/03/04 03:34:46;;;;;;;;;;;19.40;48.40;;;;;;1499587;78;759;-69
2024/03/04 03:36:48;;;;;;;;;;;19.40;48.40;;;;;;1501272;78;780;-70
2024/03/04 03:38:51;;;;;;;;;;;19.40;48.40;;;;;;1496926;78;676;-71
2024/03/04 03:40:54;;;;;;;;;;;19.40;48.40;;;;;;1494644;78;1155;-71
2024/03/04 03:42:56;;;;;;;;;;;19.20;48.30;;;;;;1505087;78;669;-68
2024/03/04 03:44:58;;;;;;;;;;;19.40;48.40;;;;;;1507034;78;1375;-71
2024/03/04 03:47:00;;;;;;;;;;;19.40;48.50;;;;;;1501594;78;745;-71
2024/03/04 03:49:02;;;;;;;;;;;19.30;48.40;;;;;;1501098;78;1915;-70
2024/03/04 03:51:04;;;;;;;;;;;19.40;48.40;;;;;;1494479;78;1082;-70
2024/03/04 03:53:06;;;;;;;;;;;19.40;48.40;;;;;;1502077;78;731;-70
2024/03/04 03:55:07;;;;;;;;;;;19.40;48.50;;;;;;1498058;78;786;-71
2024/03/04 03:57:09;;;;;;;;;;;19.40;48.50;;;;;;1495093;78;767;-72
2024/03/04 03:59:11;;;;;;;;;;;19.40;48.40;;;;;;1496733;78;1558;-70
2024/03/04 04:01:13;;;;;;;;;;;19.30;48.40;;;;;;1495898;78;1133;-71
2024/03/04 04:03:16;;;;;;;;;;;19.30;48.50;;;;;;1500069;78;783;-68
2024/03/04 04:05:18;;;;;;;;;;;19.30;48.40;;;;;;1497350;78;735;-71
2024/03/04 04:07:20;;;;;;;;;;;19.40;48.50;;;;;;1493702;78;668;-67
2024/03/04 04:09:22;;;;;;;;;;;19.40;48.40;;;;;;1501368;78;1946;-70
2024/03/04 04:11:24;;;;;;;;;;;19.40;48.40;;;;;;1504227;78;1164;-71
2024/03/04 04:13:26;;;;;;;;;;;19.30;48.40;;;;;;1497957;78;1549;-69
2024/03/04 04:15:28;;;;;;;;;;;19.40;48.40;;;;;;1496386;78;812;-69
2024/03/04 04:17:30;;;;;;;;;;;19.40;48.50;;;;;;1508111;78;676;-71
2024/03/04 04:19:34;;;;;;;;;;;19.40;48.40;;;;;;1495029;78;618;-70
2024/03/04 04:21:35;;;;;;;;;;;19.40;48.40;;;;;;1495382;78;1614;-69
2024/03/04 04:23:37;;;;;;;;;;;19.40;48.40;;;;;;1497851;78;780;-70
2024/03/04 04:25:39;;;;;;;;;;;19.30;48.40;;;;;;1496608;78;772;-74
2024/03/04 04:27:41;;;;;;;;;;;19.40;48.40;;;;;;1512146;78;1297;-71
2024/03/04 04:29:43;;;;;;;;;;;19.40;48.40;;;;;;1507924;78;1937;-70
2024/03/04 04:31:45;;;;;;;;;;;19.40;48.40;;;;;;1496934;78;1122;-69
2024/03/04 04:33:47;;;;;;;;;;;19.40;48.50;;;;;;1500952;78;750;-70
2024/03/04 04:35:49;;;;;;;;;;;19.40;48.60;;;;;;1499829;78;691;-71
2024/03/04 04:37:51;;;;;;;;;;;19.30;48.50;;;;;;1503495;78;777;-70
2024/03/04 04:39:53;;;;;;;;;;;19.40;48.50;;;;;;1505117;78;740;-70
2024/03/04 04:41:54;;;;;;;;;;;19.40;48.50;;;;;;1498424;78;1363;-68
2024/03/04 04:43:56;;;;;;;;;;;19.40;48.50;;;;;;1504953;78;722;-69
2024/03/04 04:45:58;;;;;;;;;;;19.30;48.40;;;;;;1497813;78;788;-68
2024/03/04 04:48:00;;;;;;;;;;;19.40;48.50;;;;;;1494871;78;670;-68
2024/03/04 04:50:03;;;;;;;;;;;19.30;48.50;;;;;;1504287;78;1946;-70
2024/03/04 04:52:05;;;;;;;;;;;19.30;48.60;;;;;;1497770;78;1119;-71
2024/03/04 04:54:07;;;;;;;;;;;19.30;48.50;;;;;;1497830;78;564;-70
2024/03/04 04:56:09;;;;;;;;;;;19.30;48.50;;;;;;1500539;78;1298;-68
2024/03/04 04:58:10;;;;;;;;;;;19.40;48.50;;;;;;1463548;79;931;-69
2024/03/04 05:00:13;;;;;;;;;;;19.30;48.60;;;;;;1496269;77;782;-67
2024/03/04 05:02:15;;;;;;;;;;;19.40;48.60;;;;;;1494728;78;1140;-70
2024/03/04 05:04:18;;;;;;;;;;;19.40;48.60;;;;;;1497021;78;738;-68
2024/03/04 05:06:20;;;;;;;;;;;19.30;48.60;;;;;;1490407;78;696;-69
2024/03/04 05:08:22;;;;;;;;;;;19.40;48.60;;;;;;1502927;79;796;-73
2024/03/04 05:10:24;;;;;;;;;;;19.40;48.60;;;;;;1554551;75;1939;-71
2024/03/04 05:12:26;;;;;;;;;;;19.40;48.60;;;;;;1550928;75;1192;-70
2024/03/04 05:14:28;;;;;;;;;;;19.30;48.60;;;;;;1545533;74;854;-69
2024/03/04 05:16:30;;;;;;;;;;;19.40;48.60;;;;;;1553603;75;743;-69
2024/03/04 05:18:32;;;;;;;;;;;19.40;48.70;;;;;;1560562;75;660;-69
2024/03/04 05:20:34;;;;;;;;;;;19.40;48.60;;;;;;1551958;75;1155;-67
2024/03/04 05:22:36;;;;;;;;;;;19.40;48.60;;;;;;1499042;78;789;-70
2024/03/04 05:24:38;;;;;;;;;;;19.40;48.70;;;;;;1496717;78;1489;-69
2024/03/04 05:26:40;;;;;;;;;;;19.40;48.90;;;;;;1498151;79;778;-68
2024/03/04 05:28:41;;;;;;;;;;;19.40;48.90;;;;;;1496614;78;651;-68
2024/03/04 05:30:43;;;;;;;;;;;19.30;49.00;;;;;;1500282;79;1907;-68
2024/03/04 05:32:45;;;;;;;;;;;19.40;48.80;;;;;;1494817;78;774;-67
2024/03/04 05:34:47;;;;;;;;;;;19.40;48.90;;;;;;1497553;79;755;-65
2024/03/04 05:36:49;;;;;;;;;;;19.40;48.70;;;;;;1486760;79;784;-66
2024/03/04 05:38:51;;;;;;;;;;;19.40;48.70;;;;;;1494018;79;1523;-66
2024/03/04 05:40:53;;;;;;;;;;;19.40;48.80;;;;;;1490613;79;1099;-66
2024/03/04 05:42:55;;;;;;;;;;;19.40;48.80;;;;;;1504753;78;663;-68
2024/03/04 05:44:56;;;;;;;;;;;19.40;48.70;;;;;;1538717;75;658;-65
2024/03/04 05:46:58;;;;;;;;;;;19.30;48.90;;;;;;1547313;75;681;-68
2024/03/04 05:49:01;;;;;;;;;;;19.40;48.70;;;;;;1498350;78;744;-72
2024/03/04 05:51:03;;;;;;;;;;;19.40;48.80;;;;;;1509590;76;1953;-67
2024/03/04 05:53:05;;;;;;;;;;;19.40;48.80;;;;;;1512045;78;1303;-69
2024/03/04 05:55:07;;;;;;;;;;;19.40;48.90;;;;;;1508704;78;727;-65
2024/03/04 05:57:09;;;;;;;;;;;19.40;48.70;;;;;;1520404;77;643;-67
2024/03/04 05:59:10;;;;;;;;;;;19.40;48.80;;;;;;1505943;78;741;-67
2024/03/04 06:01:15;;;;;;;;;;;19.40;48.80;;;;;;1507456;78;1183;-67
2024/03/04 06:03:17;;;;;;;;;;;19.40;48.80;;;;;;1505842;78;787;-67
2024/03/04 06:05:18;;;;;;;;;;;19.40;48.80;;;;;;1500029;78;791;-68
2024/03/04 06:07:20;;;;;;;;;;;19.40;48.90;;;;;;1505451;78;1569;-69
2024/03/04 06:09:26;;;;;;;;;;;19.40;48.90;;;;;;1505340;78;762;-67
2024/03/04 06:11:29;;;;;;;;;;;19.30;48.90;;;;;;1513365;78;1927;-68
2024/03/04 06:13:31;;;;;;;;;;;19.30;48.80;;;;;;1514598;78;1101;-68
2024/03/04 06:15:33;;;;;;;;;;;19.30;48.90;;;;;;1503055;78;687;-66
2024/03/04 06:17:34;;;;;;;;;;;19.30;48.80;;;;;;1514195;78;709;-70
2024/03/04 06:19:36;;;;;;;;;;;19.30;48.90;;;;;;1512695;78;624;-68
2024/03/04 06:21:38;;;;;;;;;;;19.40;48.80;;;;;;1498798;78;1160;-69
2024/03/04 06:23:40;;;;;;;;;;;19.40;48.80;;;;;;1503561;78;689;-69
2024/03/04 06:25:42;;;;;;;;;;;19.30;48.80;;;;;;1509267;78;720;-65
2024/03/04 06:27:44;;;;;;;;;;;19.40;48.80;;;;;;1505987;78;675;-65
2024/03/04 06:29:46;;;;;;;;;;;19.30;48.90;;;;;;1509228;77;1912;-66
2024/03/04 06:31:49;;;;;;;;;;;19.40;48.90;;;;;;1519865;78;1096;-66
2024/03/04 06:33:51;;;;;;;;;;;19.40;48.90;;;;;;1511766;77;1524;-67
2024/03/04 06:35:53;;;;;;;;;;;19.40;48.90;;;;;;1510321;77;787;-69
2024/03/04 06:37:55;;;;;;;;;;;19.40;48.80;;;;;;1510462;78;751;-69
2024/03/04 06:39:57;;;;;;;;;;;19.30;48.90;;;;;;1516048;78;736;-63
2024/03/04 06:41:59;;;;;;;;;;;19.30;49.20;;;;;;1515473;77;1133;-68
2024/03/04 06:44:00;;;;;;;;;;;19.40;49.00;;;;;;1520542;77;714;-67
2024/03/04 06:46:02;;;;;;;;;;;19.40;49.40;;;;;;1518023;78;825;-67
2024/03/04 06:48:05;;;;;;;;;;;19.40;49.40;;;;;;1511987;78;1338;-70
2024/03/04 06:50:07;;;;;;;;;;;19.30;49.20;;;;;;1516571;78;1942;-73
2024/03/04 06:52:09;;;;;;;;;;;19.30;49.00;;;;;;1509782;77;1084;-72
2024/03/04 06:54:10;;;;;;;;;;;19.30;48.90;;;;;;1511917;78;769;-71
2024/03/04 06:56:12;;;;;;;;;;;19.30;48.70;;;;;;1507089;78;834;-71
2024/03/04 06:58:15;;;;;;;;;;;19.30;48.50;;;;;;1514288;77;683;-71
2024/03/04 07:00:17;;;;;;;;;;;19.20;48.40;;;;;;1514889;77;803;-71
2024/03/04 07:02:19;;;;;;;;;;;19.20;48.30;;;;;;1525325;78;1666;-68
2024/03/04 07:04:21;;;;;;;;;;;19.20;48.20;;;;;;1513479;78;752;-71
2024/03/04 07:06:23;;;;;;;;;;;19.20;48.10;;;;;;1521232;77;805;-68
2024/03/04 07:08:24;;;;;;;;;;;19.20;48.10;;;;;;1513637;77;764;-69
2024/03/04 07:10:26;;;;;;;;;;;19.20;48.10;;;;;;1515675;78;1940;-70
2024/03/04 07:12:28;;;;;;;;;;;19.20;48.10;;;;;;1522655;77;1194;-68
2024/03/04 07:14:30;;;;;;;;;;;19.10;48.00;;;;;;1510585;78;781;-72
2024/03/04 07:16:32;;;;;;;;;;;19.10;47.90;;;;;;1513933;78;1286;-69
2024/03/04 07:18:34;;;;;;;;;;;19.10;47.80;;;;;;1508285;78;747;-68
2024/03/04 07:20:36;;;;;;;;;;;19.10;47.80;;;;;;1515053;78;1161;-69
2024/03/04 07:22:38;;;;;;;;;;;19.10;47.80;;;;;;1515110;78;695;-66
2024/03/04 07:24:40;;;;;;;;;;;19.10;47.80;;;;;;1520416;78;732;-68
2024/03/04 07:26:42;;;;;;;;;;;19.10;47.70;;;;;;1509127;78;794;-67
2024/03/04 07:28:44;;;;;;;;;;;19.10;47.70;;;;;;1510968;78;917;-71
2024/03/04 07:30:46;;;;;;;;;;;19.10;47.60;;;;;;1490254;78;1949;-70
2024/03/04 07:32:48;;;;;;;;;;;19.20;47.50;;;;;;1484294;78;711;-68
2024/03/04 07:34:49;;;;;;;;;;;19.10;47.40;;;;;;1512431;77;683;-69
2024/03/04 07:36:51;;;;;;;;;;;19.10;47.40;;;;;;1508463;77;790;-70
2024/03/04 07:38:53;;;;;;;;;;;19.10;47.50;;;;;;1488943;78;722;-69
2024/03/04 07:40:55;;;;;;;;;;;19.10;47.40;;;;;;1489146;78;1159;-67
2024/03/04 07:42:57;;;;;;;;;;;19.10;47.40;;;;;;1495332;78;606;-70
2024/03/04 07:44:59;;;;;;;;;;;19.10;47.30;;;;;;1505074;78;1557;-68
2024/03/04 07:47:01;;;;;;;;;;;19.10;47.40;;;;;;1503580;78;784;-68
2024/03/04 07:49:02;;;;;;;;;;;19.10;47.30;;;;;;1503922;78;760;-66
2024/03/04 07:51:05;;;;;;;;;;;19.10;47.30;;;;;;1498632;78;1921;-67
2024/03/04 07:53:07;;;;;;;;;;;19.10;47.30;;;;;;1506832;78;792;-70
2024/03/04 07:55:11;;;;;;;;;;;19.10;47.30;;;;;;1497495;78;732;-71
2024/03/04 07:57:12;;;;;;;;;;;19.10;47.30;;;;;;1503522;78;1695;-70
2024/03/04 07:59:14;;;;;;;;;;;19.00;47.00;;;;;;1509165;78;1600;-70
2024/03/04 08:01:16;;;;;;;;;;;19.00;47.10;;;;;;1504333;78;1122;-70
2024/03/04 08:03:18;;;;;;;;;;;19.00;47.10;;;;;;1500251;78;752;-67
2024/03/04 08:05:20;;;;;;;;;;;19.10;47.80;;;;;;1506331;78;769;-69
2024/03/04 08:07:22;;;;;;;;;;;19.20;47.90;;;;;;1505740;78;651;-68
2024/03/04 08:09:24;;;;;;;;;;;19.20;47.80;;;;;;1504396;78;741;-70
2024/03/04 08:11:26;;;;;;;;;;;19.20;47.80;;;;;;1504506;78;1950;-71
2024/03/04 08:13:28;;;;;;;;;;;19.20;47.70;;;;;;1504468;78;1522;-69
2024/03/04 08:15:30;;;;;;;;;;;19.20;47.70;;;;;;1508422;78;948;-68
2024/03/04 08:17:35;;;;;;;;;;;19.20;47.70;;;;;;1498491;78;709;-70
2024/03/04 08:19:36;;;;;;;;;;;19.30;47.80;;;;;;1495611;78;801;-67
2024/03/04 08:21:39;;;;;;;;;;;19.20;47.70;;;;;;1502471;78;1187;-67
2024/03/04 08:23:41;;;;;;;;;;;19.20;47.60;;;;;;1508018;78;749;-68
2024/03/04 08:25:43;;;;;;;;;;;19.30;47.70;;;;;;1508599;78;699;-72
2024/03/04 08:27:46;;;;;;;;;;;19.30;47.70;;;;;;1495243;78;1601;-70
2024/03/04 08:29:52;;;;;;;;;;;19.20;47.60;;;;;;1509348;78;832;-69
2024/03/04 08:31:51;;;;;;;;;;;19.20;47.10;;;;;;1508336;78;1921;-70
2024/03/04 08:33:53;;;;;;;;;;;19.30;47.10;;;;;;1503224;78;903;-71
2024/03/04 08:35:55;;;;;;;;;;;19.30;47.40;;;;;;1501213;78;712;-71
2024/03/04 08:37:57;;;;;;;;;;;19.20;47.50;;;;;;1508312;78;646;-71
2024/03/04 08:40:03;;;;;;;;;;;19.30;47.60;;;;;;1494157;78;638;-71
2024/03/04 08:42:02;;;;;;;;;;;19.20;47.50;;;;;;1504065;78;1655;-70
2024/03/04 08:44:05;;;;;;;;;;;19.40;47.70;;;;;;1503298;78;801;-72
2024/03/04 08:46:07;;;;;;;;;;;19.20;47.50;;;;;;1501930;78;860;-73
2024/03/04 08:48:09;;;;;;;;;;;19.20;47.60;;;;;;1503453;78;742;-71
2024/03/04 08:50:11;;;;;;;;;;;19.20;47.50;;;;;;1501633;78;692;-71
2024/03/04 08:52:12;;;;;;;;;;;19.30;47.60;;;;;;1503934;78;1946;-70
2024/03/04 08:54:15;;;;;;;;;;;19.30;47.60;;;;;;1500720;78;783;-70
2024/03/04 08:56:17;;;;;;;;;;;19.30;47.50;;;;;;1506442;78;1769;-72
2024/03/04 08:58:19;;;;;;;;;;;19.30;47.60;;;;;;1511593;78;744;-70
2024/03/04 09:00:21;;;;;;;;;;;19.30;47.50;;;;;;1506968;78;737;-72
2024/03/04 09:02:23;;;;;;;;;;;19.30;47.50;;;;;;1504366;77;1143;-71
2024/03/04 09:04:25;;;;;;;;;;;19.30;47.50;;;;;;1499184;78;737;-71
2024/03/04 09:06:27;;;;;;;;;;;19.30;47.50;;;;;;1509570;78;700;-71
2024/03/04 09:08:28;;;;;;;;;;;19.20;47.70;;;;;;1509876;78;1569;-73
2024/03/04 09:10:30;;;;;;;;;;;19.20;47.70;;;;;;1519800;76;1146;-68
2024/03/04 09:12:32;;;;;;;;;;;19.40;47.70;;;;;;1508824;78;1927;-71
2024/03/04 09:14:34;;;;;;;;;;;19.30;47.60;;;;;;1512045;78;674;-72
2024/03/04 09:16:36;;;;;;;;;;;19.30;47.60;;;;;;1504525;78;700;-75
2024/03/04 09:18:41;;;;;;;;;;;19.20;47.60;;;;;;1502564;78;719;-72
2024/03/04 09:20:43;;;;;;;;;;;19.30;47.60;;;;;;1500572;78;1144;-71
2024/03/04 09:22:45;;;;;;;;;;;19.20;47.60;;;;;;1503073;78;1558;-73
2024/03/04 09:24:48;;;;;;;;;;;19.40;47.60;;;;;;1507087;78;659;-71
2024/03/04 09:26:50;;;;;;;;;;;19.30;47.60;;;;;;1504738;78;794;-71
2024/03/04 09:28:52;;;;;;;;;;;19.30;47.70;;;;;;1503461;78;814;-71
2024/03/04 09:30:54;;;;;;;;;;;19.40;47.60;;;;;;1505350;78;1948;-72
2024/03/04 09:32:56;;;;;;;;;;;19.40;47.70;;;;;;1507189;78;736;-73
2024/03/04 09:34:58;;;;;;;;;;;19.30;47.60;;;;;;1494366;78;820;-71
2024/03/04 09:37:01;;;;;;;;;;;19.30;47.60;;;;;;1493655;78;1533;-73
2024/03/04 09:39:05;;;;;;;;;;;19.30;47.60;;;;;;1502876;78;707;-72
2024/03/04 09:41:07;;;;;;;;;;;19.30;47.70;;;;;;1506373;78;1713;-75
2024/03/04 09:43:08;;;;;;;;;;;19.30;47.60;;;;;;1504953;78;755;-74
2024/03/04 09:45:10;;;;;;;;;;;19.30;47.60;;;;;;1504152;78;678;-71
2024/03/04 09:47:13;;;;;;;;;;;19.20;44.20;;;;;;1504342;78;637;-73
2024/03/04 09:49:15;;;;;;;;;;;19.20;45.70;;;;;;1504608;78;857;-73
2024/03/04 09:51:17;;;;;;;;;;;19.20;46.30;;;;;;1510536;78;1959;-72
2024/03/04 09:53:18;;;;;;;;;;;19.20;46.80;;;;;;1506520;78;745;-72
2024/03/04 09:55:20;;;;;;;;;;;19.20;47.50;;;;;;1503152;78;692;-71
2024/03/04 09:57:22;;;;;;;;;;;19.20;47.70;;;;;;1510162;78;667;-70
2024/03/04 09:59:24;;;;;;;;;;;19.20;47.30;;;;;;1503175;78;776;-76
2024/03/04 10:01:26;;;;;;;;;;;19.30;47.70;;;;;;1507612;78;1168;-72
2024/03/04 10:03:31;;;;;;;;;;;19.30;47.80;;;;;;1505221;78;807;-70
2024/03/04 10:05:33;;;;;;;;;;;19.30;47.80;;;;;;1500948;78;1583;-70
2024/03/04 10:07:36;;;;;;;;;;;19.40;47.80;;;;;;1499372;78;723;-72
2024/03/04 10:09:38;;;;;;;;;;;19.30;47.90;;;;;;1499176;78;823;-70
2024/03/04 10:11:40;;;;;;;;;;;19.30;47.80;;;;;;1500294;78;1945;-72
2024/03/04 10:13:42;;;;;;;;;;;19.40;47.80;;;;;;1506546;78;849;-70
2024/03/04 10:15:47;;;;;;;;;;;19.40;47.80;;;;;;1499730;78;701;-71
2024/03/04 10:17:50;;;;;;;;;;;19.30;47.80;;;;;;1500398;78;745;-74
2024/03/04 10:19:58;;;;;;;;;;;19.30;48.00;;;;;;1502470;78;1578;-70
2024/03/04 10:22:00;;;;;;;;;;;19.50;48.20;;;;;;1508503;77;1174;-71
2024/03/04 10:24:10;;;;;;;;;;;19.40;48.00;;;;;;1510672;78;770;-70
2024/03/04 10:26:11;;;;;;;;;;;19.40;48.00;;;;;;1494766;78;1135;-72
2024/03/04 10:28:14;;;;;;;;;;;19.50;48.00;;;;;;1505756;78;744;-72
2024/03/04 10:30:16;;;;;;;;;;;19.40;47.80;;;;;;1505180;78;765;-76
2024/03/04 10:32:18;;;;;;;;;;;19.40;47.70;;;;;;1502601;78;1950;-66
2024/03/04 10:34:20;;;;;;;;;;;19.40;47.80;;;;;;1498351;78;1630;-74
2024/03/04 10:36:22;;;;;;;;;;;19.50;48.10;;;;;;1497869;78;748;-69
2024/03/04 10:38:24;;;;;;;;;;;19.40;48.10;;;;;;1502504;78;764;-67
2024/03/04 10:40:26;;;;;;;;;;;19.50;48.10;;;;;;1497788;78;739;-68
2024/03/04 10:42:28;;;;;;;;;;;19.50;47.90;;;;;;1504555;78;1151;-68
2024/03/04 10:44:29;;;;;;;;;;;19.50;47.80;;;;;;1503457;78;696;-71
2024/03/04 10:46:33;;;;;;;;;;;19.50;47.90;;;;;;1491059;78;758;-72
2024/03/04 10:48:35;;;;;;;;;;;19.60;47.90;;;;;;1493616;78;2394;-66
2024/03/04 10:50:37;;;;;;;;;;;19.60;47.90;;;;;;1484735;78;1153;-70
2024/03/04 10:52:39;;;;;;;;;;;19.50;48.00;;;;;;1499512;78;1926;-73
2024/03/04 10:54:42;;;;;;;;;;;19.50;48.00;;;;;;1498668;78;738;-72
2024/03/04 10:56:45;;;;;;;;;;;19.50;48.10;;;;;;1506982;78;762;-72
2024/03/04 10:58:49;;;;;;;;;;;19.60;47.90;;;;;;1501055;78;768;-70
2024/03/04 11:00:51;;;;;;;;;;;19.50;47.90;;;;;;1504701;78;1171;-72
2024/03/04 11:03:04;;;;;;;;;;;19.60;47.90;;;;;;1501016;78;1588;-73
2024/03/04 11:05:08;;;;;;;;;;;19.60;47.90;;;;;;1499209;78;606;-73
2024/03/04 11:07:11;;;;;;;;;;;19.50;46.80;;;;;;1509643;78;705;-74
2024/03/04 11:09:12;;;;;;;;;;;19.50;45.90;;;;;;1503770;78;756;-72
2024/03/04 11:11:16;;;;;;;;;;;19.50;47.20;;;;;;1510218;78;1097;-71
2024/03/04 11:13:22;;;;;;;;;;;19.50;47.40;;;;;;1501839;78;1920;-70
2024/03/04 11:15:24;;;;;;;;;;;19.50;47.50;;;;;;1501599;78;1332;-72
2024/03/04 11:17:31;;;;;;;;;;;19.40;47.50;;;;;;1497056;78;760;-71
2024/03/04 11:19:40;;;;;;;;;;;19.50;47.70;;;;;;1495050;78;744;-69
2024/03/04 11:21:42;;;;;;;;;;;19.50;47.70;;;;;;1493107;78;1954;-73
2024/03/04 11:23:45;;;;;;;;;;;19.40;47.60;;;;;;1502598;78;713;-73
2024/03/04 11:25:47;;;;;;;;;;;19.50;47.80;;;;;;1499770;78;759;-71
2024/03/04 11:27:48;;;;;;;;;;;19.50;47.80;;;;;;1500610;78;677;-72
2024/03/04 11:29:50;;;;;;;;;;;19.60;47.80;;;;;;1501877;78;1402;-75
2024/03/04 11:31:53;;;;;;;;;;;19.50;47.80;;;;;;1504460;78;1932;-69
2024/03/04 11:34:03;;;;;;;;;;;19.50;47.70;;;;;;1500714;78;777;-74
2024/03/04 11:36:06;;;;;;;;;;;19.60;47.70;;;;;;1504982;78;1820;-70
2024/03/04 11:38:08;;;;;;;;;;;19.50;47.70;;;;;;1493783;78;1823;-74
2024/03/04 11:40:13;;;;;;;;;;;19.50;47.80;;;;;;1504619;78;694;-72
2024/03/04 11:42:16;;;;;;;;;;;19.50;47.80;;;;;;1503204;78;1046;-72
2024/03/04 11:44:22;;;;;;;;;;;19.50;47.70;;;;;;1505784;78;1811;-71
2024/03/04 11:46:24;;;;;;;;;;;19.50;47.70;;;;;;1500213;78;1863;-74
2024/03/04 11:48:29;;;;;;;;;;;19.60;47.60;;;;;;1503032;78;637;-72
2024/03/04 11:50:46;;;;;;;;;;;19.60;47.60;;;;;;1505601;78;616;-72
2024/03/04 11:52:48;;;;;;;;;;;19.50;47.60;;;;;;1500613;78;1928;-70
2024/03/04 11:54:50;;;;;;;;;;;19.50;47.60;;;;;;1506604;78;735;-71
2024/03/04 11:56:52;;;;;;;;;;;19.50;47.70;;;;;;1511307;78;736;-71
2024/03/04 11:58:55;;;;;;;;;;;19.40;47.60;;;;;;1485425;79;1608;-72
2024/03/04 12:00:57;;;;;;;;;;;19.50;47.80;;;;;;1501872;78;1126;-72
2024/03/04 12:03:05;;;;;;;;;;;19.50;47.70;;;;;;1504225;78;737;-71
2024/03/04 12:05:09;;;;;;;;;;;19.50;47.80;;;;;;1502380;78;777;-75
2024/03/04 12:07:10;;;;;;;;;;;19.40;47.80;;;;;;1504630;78;796;-75
2024/03/04 12:09:12;;;;;;;;;;;19.50;48.60;;;;;;1508113;78;706;-73